FDUS

Musi Airport

Musi, Swaziland
METAR FDUS 151100Z AUTO 10009KT //// // ////// 32/17 Q1017
Observed Flight Rules
Nov-15 @ 11:00 UTC (2 hours ago)
Wind
100° at 9 knots
Temperatures Readings
Current 32°C / 90°F
Dewpoint 17°C / 63°F
Humidity 41%
Altimeter 30.03" Hg
Pressure 1017 hPa
Elevation 956
METAR FDUS 151100Z AUTO 10009KT //// // ////// 32/17 Q1017
Observed Flight Rules
Nov-15 @ 11:00 UTC
(2 hours ago)
Wind
100° at 9 knots
Temperature Dewpoint
32°C / 90°F 17°C / 63°F
Humidity Altimeter Pressure
41% 30.03" Hg 1017 hPa